sensor_id;sensor_type;location;lat;lon;timestamp;temperature;humidity
15095;DHT22;7648;52.264;9.632;2023-04-19T00:02:50;9.40;99.90
15095;DHT22;7648;52.264;9.632;2023-04-19T00:06:51;9.40;99.90
15095;DHT22;7648;52.264;9.632;2023-04-19T00:10:55;9.40;99.90
15095;DHT22;7648;52.264;9.632;2023-04-19T00:14:57;9.30;99.90
15095;DHT22;7648;52.264;9.632;2023-04-19T00:18:59;9.20;99.90
15095;DHT22;7648;52.264;9.632;2023-04-19T00:23:01;9.20;99.90
15095;DHT22;7648;52.264;9.632;2023-04-19T00:27:04;9.20;99.90
15095;DHT22;7648;52.264;9.632;2023-04-19T00:31:06;9.20;99.90
15095;DHT22;7648;52.264;9.632;2023-04-19T00:35:09;9.20;99.90
15095;DHT22;7648;52.264;9.632;2023-04-19T00:39:11;9.20;99.90
15095;DHT22;7648;52.264;9.632;2023-04-19T00:43:17;9.20;99.90
15095;DHT22;7648;52.264;9.632;2023-04-19T00:47:19;9.20;99.90
15095;DHT22;7648;52.264;9.632;2023-04-19T00:51:21;9.20;99.90
15095;DHT22;7648;52.264;9.632;2023-04-19T00:55:24;9.10;99.90
15095;DHT22;7648;52.264;9.632;2023-04-19T00:59:27;9.10;99.90
15095;DHT22;7648;52.264;9.632;2023-04-19T01:03:29;9.00;99.90
15095;DHT22;7648;52.264;9.632;2023-04-19T01:07:32;8.90;99.90
15095;DHT22;7648;52.264;9.632;2023-04-19T01:11:34;8.90;99.90
15095;DHT22;7648;52.264;9.632;2023-04-19T01:15:37;8.90;99.90
15095;DHT22;7648;52.264;9.632;2023-04-19T01:19:39;8.80;99.90
15095;DHT22;7648;52.264;9.632;2023-04-19T01:23:43;8.70;99.90
15095;DHT22;7648;52.264;9.632;2023-04-19T01:27:45;8.60;99.90
15095;DHT22;7648;52.264;9.632;2023-04-19T01:31:46;8.40;99.90
15095;DHT22;7648;52.264;9.632;2023-04-19T01:35:53;8.30;99.90
15095;DHT22;7648;52.264;9.632;2023-04-19T01:39:56;8.20;99.90
15095;DHT22;7648;52.264;9.632;2023-04-19T01:43:58;8.10;99.90
15095;DHT22;7648;52.264;9.632;2023-04-19T01:48:00;8.00;99.90
15095;DHT22;7648;52.264;9.632;2023-04-19T01:52:02;7.80;99.90
15095;DHT22;7648;52.264;9.632;2023-04-19T01:56:06;7.70;99.90
15095;DHT22;7648;52.264;9.632;2023-04-19T02:00:09;7.60;99.90
15095;DHT22;7648;52.264;9.632;2023-04-19T02:04:15;7.50;99.90
15095;DHT22;7648;52.264;9.632;2023-04-19T02:08:16;7.40;99.90
15095;DHT22;7648;52.264;9.632;2023-04-19T02:12:20;7.30;99.90
15095;DHT22;7648;52.264;9.632;2023-04-19T02:16:22;7.20;99.90
15095;DHT22;7648;52.264;9.632;2023-04-19T02:20:24;7.10;99.90
15095;DHT22;7648;52.264;9.632;2023-04-19T02:24:26;7.00;99.90
15095;DHT22;7648;52.264;9.632;2023-04-19T02:28:30;7.00;99.90
15095;DHT22;7648;52.264;9.632;2023-04-19T02:32:32;6.90;99.90
15095;DHT22;7648;52.264;9.632;2023-04-19T02:36:33;6.80;99.90
15095;DHT22;7648;52.264;9.632;2023-04-19T02:40:36;6.70;99.90
15095;DHT22;7648;52.264;9.632;2023-04-19T02:44:39;6.70;99.90
15095;DHT22;7648;52.264;9.632;2023-04-19T02:48:41;6.60;99.90
15095;DHT22;7648;52.264;9.632;2023-04-19T02:52:43;6.60;99.90
15095;DHT22;7648;52.264;9.632;2023-04-19T02:56:46;6.50;99.90
15095;DHT22;7648;52.264;9.632;2023-04-19T03:00:50;6.40;99.90
15095;DHT22;7648;52.264;9.632;2023-04-19T03:04:55;6.40;99.90
15095;DHT22;7648;52.264;9.632;2023-04-19T03:08:57;6.30;99.90
15095;DHT22;7648;52.264;9.632;2023-04-19T03:13:01;6.30;99.90
15095;DHT22;7648;52.264;9.632;2023-04-19T03:17:05;6.20;99.90
15095;DHT22;7648;52.264;9.632;2023-04-19T03:21:07;6.10;99.90
15095;DHT22;7648;52.264;9.632;2023-04-19T03:25:21;6.00;99.90
15095;DHT22;7648;52.264;9.632;2023-04-19T03:29:32;5.90;99.90
15095;DHT22;7648;52.264;9.632;2023-04-19T03:33:39;5.90;99.90
15095;DHT22;7648;52.264;9.632;2023-04-19T03:37:43;5.80;99.90
15095;DHT22;7648;52.264;9.632;2023-04-19T03:41:45;5.80;99.90
15095;DHT22;7648;52.264;9.632;2023-04-19T03:46:13;5.70;99.90
15095;DHT22;7648;52.264;9.632;2023-04-19T03:50:17;5.60;99.90
15095;DHT22;7648;52.264;9.632;2023-04-19T03:54:23;5.50;99.90
15095;DHT22;7648;52.264;9.632;2023-04-19T03:58:25;5.50;99.90
15095;DHT22;7648;52.264;9.632;2023-04-19T04:02:36;5.50;99.90
15095;DHT22;7648;52.264;9.632;2023-04-19T04:06:41;5.50;99.90
15095;DHT22;7648;52.264;9.632;2023-04-19T04:10:43;5.40;99.90
15095;DHT22;7648;52.264;9.632;2023-04-19T04:14:45;5.30;99.90
15095;DHT22;7648;52.264;9.632;2023-04-19T04:18:47;5.30;99.90
15095;DHT22;7648;52.264;9.632;2023-04-19T04:22:51;5.20;99.90
15095;DHT22;7648;52.264;9.632;2023-04-19T04:26:55;5.20;99.90
15095;DHT22;7648;52.264;9.632;2023-04-19T04:31:03;5.20;99.90
15095;DHT22;7648;52.264;9.632;2023-04-19T04:35:08;5.20;99.90
15095;DHT22;7648;52.264;9.632;2023-04-19T04:39:19;5.20;99.90
15095;DHT22;7648;52.264;9.632;2023-04-19T04:43:21;5.20;99.90
15095;DHT22;7648;52.264;9.632;2023-04-19T04:47:23;5.20;99.90
15095;DHT22;7648;52.264;9.632;2023-04-19T04:51:29;5.20;99.90
15095;DHT22;7648;52.264;9.632;2023-04-19T04:55:33;5.20;99.90
15095;DHT22;7648;52.264;9.632;2023-04-19T04:59:36;5.20;99.90
15095;DHT22;7648;52.264;9.632;2023-04-19T05:03:38;5.20;99.90
15095;DHT22;7648;52.264;9.632;2023-04-19T05:07:44;5.30;99.90
15095;DHT22;7648;52.264;9.632;2023-04-19T05:11:48;5.30;99.90
15095;DHT22;7648;52.264;9.632;2023-04-19T05:15:50;5.30;99.90
15095;DHT22;7648;52.264;9.632;2023-04-19T05:19:53;5.30;99.90
15095;DHT22;7648;52.264;9.632;2023-04-19T05:23:55;5.30;99.90
15095;DHT22;7648;52.264;9.632;2023-04-19T05:27:59;5.30;99.90
15095;DHT22;7648;52.264;9.632;2023-04-19T05:32:06;5.30;99.90
15095;DHT22;7648;52.264;9.632;2023-04-19T05:36:16;5.30;99.90
15095;DHT22;7648;52.264;9.632;2023-04-19T05:40:19;5.40;99.90
15095;DHT22;7648;52.264;9.632;2023-04-19T05:44:23;5.40;99.90
15095;DHT22;7648;52.264;9.632;2023-04-19T05:48:25;5.40;99.90
15095;DHT22;7648;52.264;9.632;2023-04-19T05:52:36;5.40;99.90
15095;DHT22;7648;52.264;9.632;2023-04-19T05:56:39;5.50;99.90
15095;DHT22;7648;52.264;9.632;2023-04-19T06:00:42;5.50;99.90
15095;DHT22;7648;52.264;9.632;2023-04-19T06:04:47;5.60;99.90
15095;DHT22;7648;52.264;9.632;2023-04-19T06:08:49;5.70;99.90
15095;DHT22;7648;52.264;9.632;2023-04-19T06:12:51;5.80;99.90
15095;DHT22;7648;52.264;9.632;2023-04-19T06:16:54;5.90;99.90
15095;DHT22;7648;52.264;9.632;2023-04-19T06:20:56;6.10;99.90
15095;DHT22;7648;52.264;9.632;2023-04-19T06:24:58;6.30;99.90
15095;DHT22;7648;52.264;9.632;2023-04-19T06:29:01;6.50;99.90
15095;DHT22;7648;52.264;9.632;2023-04-19T06:33:04;6.60;99.90
15095;DHT22;7648;52.264;9.632;2023-04-19T06:37:06;6.80;99.90
15095;DHT22;7648;52.264;9.632;2023-04-19T06:41:08;6.90;99.90
15095;DHT22;7648;52.264;9.632;2023-04-19T06:45:11;7.00;99.90
15095;DHT22;7648;52.264;9.632;2023-04-19T06:49:15;7.10;99.90
15095;DHT22;7648;52.264;9.632;2023-04-19T06:53:17;7.20;99.90
15095;DHT22;7648;52.264;9.632;2023-04-19T06:57:19;7.20;99.90
15095;DHT22;7648;52.264;9.632;2023-04-19T07:01:21;7.30;99.90
15095;DHT22;7648;52.264;9.632;2023-04-19T07:05:24;7.40;99.90
15095;DHT22;7648;52.264;9.632;2023-04-19T07:09:27;7.50;99.90
15095;DHT22;7648;52.264;9.632;2023-04-19T07:13:29;7.60;99.90
15095;DHT22;7648;52.264;9.632;2023-04-19T07:17:30;7.60;99.90
15095;DHT22;7648;52.264;9.632;2023-04-19T07:21:35;7.70;99.90
15095;DHT22;7648;52.264;9.632;2023-04-19T07:25:39;7.80;99.90
15095;DHT22;7648;52.264;9.632;2023-04-19T07:29:40;7.90;99.90
15095;DHT22;7648;52.264;9.632;2023-04-19T07:33:43;8.00;99.90
15095;DHT22;7648;52.264;9.632;2023-04-19T07:37:46;8.10;99.90
15095;DHT22;7648;52.264;9.632;2023-04-19T07:41:48;8.10;99.90
15095;DHT22;7648;52.264;9.632;2023-04-19T07:45:50;8.20;99.90
15095;DHT22;7648;52.264;9.632;2023-04-19T07:49:54;8.30;99.90
15095;DHT22;7648;52.264;9.632;2023-04-19T07:53:57;8.40;99.90
15095;DHT22;7648;52.264;9.632;2023-04-19T07:57:59;8.50;99.90
15095;DHT22;7648;52.264;9.632;2023-04-19T08:02:01;8.50;99.90
15095;DHT22;7648;52.264;9.632;2023-04-19T08:06:05;8.70;99.90
15095;DHT22;7648;52.264;9.632;2023-04-19T08:10:10;8.70;99.90
15095;DHT22;7648;52.264;9.632;2023-04-19T08:14:12;8.80;99.90
15095;DHT22;7648;52.264;9.632;2023-04-19T08:18:14;8.90;99.90
15095;DHT22;7648;52.264;9.632;2023-04-19T08:22:16;9.00;99.90
15095;DHT22;7648;52.264;9.632;2023-04-19T08:26:20;9.10;99.90
15095;DHT22;7648;52.264;9.632;2023-04-19T08:30:22;9.20;99.90
15095;DHT22;7648;52.264;9.632;2023-04-19T08:34:24;9.30;99.90
15095;DHT22;7648;52.264;9.632;2023-04-19T08:38:26;9.30;99.90
15095;DHT22;7648;52.264;9.632;2023-04-19T08:42:30;9.40;99.90
15095;DHT22;7648;52.264;9.632;2023-04-19T08:46:32;9.50;99.90
15095;DHT22;7648;52.264;9.632;2023-04-19T08:50:35;9.50;99.90
15095;DHT22;7648;52.264;9.632;2023-04-19T08:54:37;9.60;99.90
15095;DHT22;7648;52.264;9.632;2023-04-19T08:58:40;9.70;99.90
15095;DHT22;7648;52.264;9.632;2023-04-19T09:02:47;9.80;99.90
15095;DHT22;7648;52.264;9.632;2023-04-19T09:06:49;9.90;99.90
15095;DHT22;7648;52.264;9.632;2023-04-19T09:10:54;10.00;99.90
15095;DHT22;7648;52.264;9.632;2023-04-19T09:14:58;10.10;99.90
15095;DHT22;7648;52.264;9.632;2023-04-19T09:19:00;10.20;99.90
15095;DHT22;7648;52.264;9.632;2023-04-19T09:23:03;10.30;99.90
15095;DHT22;7648;52.264;9.632;2023-04-19T09:27:06;10.40;99.90
15095;DHT22;7648;52.264;9.632;2023-04-19T09:31:11;10.50;99.90
15095;DHT22;7648;52.264;9.632;2023-04-19T09:35:14;10.70;99.90
15095;DHT22;7648;52.264;9.632;2023-04-19T09:39:27;10.80;99.90
15095;DHT22;7648;52.264;9.632;2023-04-19T09:43:29;10.90;99.90
15095;DHT22;7648;52.264;9.632;2023-04-19T09:47:33;11.20;99.90
15095;DHT22;7648;52.264;9.632;2023-04-19T09:51:39;11.50;99.90
15095;DHT22;7648;52.264;9.632;2023-04-19T09:55:42;11.70;99.90
15095;DHT22;7648;52.264;9.632;2023-04-19T09:59:44;12.00;99.90
15095;DHT22;7648;52.264;9.632;2023-04-19T10:03:48;12.30;99.90
15095;DHT22;7648;52.264;9.632;2023-04-19T10:07:51;12.70;99.90
15095;DHT22;7648;52.264;9.632;2023-04-19T10:11:55;12.90;99.90
15095;DHT22;7648;52.264;9.632;2023-04-19T10:16:00;13.00;98.40
15095;DHT22;7648;52.264;9.632;2023-04-19T10:20:07;13.30;99.90
15095;DHT22;7648;52.264;9.632;2023-04-19T10:24:12;13.60;99.90
15095;DHT22;7648;52.264;9.632;2023-04-19T10:28:14;13.80;99.90
15095;DHT22;7648;52.264;9.632;2023-04-19T10:32:17;14.20;99.90
15095;DHT22;7648;52.264;9.632;2023-04-19T10:36:20;14.60;99.90
15095;DHT22;7648;52.264;9.632;2023-04-19T10:40:53;15.10;99.30
15095;DHT22;7648;52.264;9.632;2023-04-19T10:45:30;15.50;94.40
15095;DHT22;7648;52.264;9.632;2023-04-19T10:49:43;15.70;94.30
15095;DHT22;7648;52.264;9.632;2023-04-19T10:53:49;15.90;88.80
15095;DHT22;7648;52.264;9.632;2023-04-19T10:58:01;16.20;98.00
15095;DHT22;7648;52.264;9.632;2023-04-19T11:02:05;16.60;91.80
15095;DHT22;7648;52.264;9.632;2023-04-19T11:06:27;16.80;94.90
15095;DHT22;7648;52.264;9.632;2023-04-19T11:10:30;17.00;89.20
15095;DHT22;7648;52.264;9.632;2023-04-19T11:14:34;17.30;90.00
15095;DHT22;7648;52.264;9.632;2023-04-19T11:18:36;17.60;84.10
15095;DHT22;7648;52.264;9.632;2023-04-19T11:22:39;17.60;85.40
15095;DHT22;7648;52.264;9.632;2023-04-19T11:26:43;17.80;87.40
15095;DHT22;7648;52.264;9.632;2023-04-19T11:30:45;18.20;81.50
15095;DHT22;7648;52.264;9.632;2023-04-19T11:34:47;18.20;80.70
15095;DHT22;7648;52.264;9.632;2023-04-19T11:38:49;18.30;89.30
15095;DHT22;7648;52.264;9.632;2023-04-19T11:42:56;18.30;70.50
15095;DHT22;7648;52.264;9.632;2023-04-19T11:47:01;18.60;80.10
15095;DHT22;7648;52.264;9.632;2023-04-19T11:51:04;18.60;80.10
15095;DHT22;7648;52.264;9.632;2023-04-19T11:55:17;18.60;76.60
15095;DHT22;7648;52.264;9.632;2023-04-19T11:59:20;18.70;78.80
15095;DHT22;7648;52.264;9.632;2023-04-19T12:03:22;18.70;75.10
15095;DHT22;7648;52.264;9.632;2023-04-19T12:07:24;18.50;94.10
15095;DHT22;7648;52.264;9.632;2023-04-19T12:11:41;18.40;76.50
15095;DHT22;7648;52.264;9.632;2023-04-19T12:15:45;18.40;68.60
15095;DHT22;7648;52.264;9.632;2023-04-19T12:19:48;18.10;75.30
15095;DHT22;7648;52.264;9.632;2023-04-19T12:23:53;17.50;90.00
15095;DHT22;7648;52.264;9.632;2023-04-19T12:27:55;17.00;79.20
15095;DHT22;7648;52.264;9.632;2023-04-19T12:31:59;17.30;87.40
15095;DHT22;7648;52.264;9.632;2023-04-19T12:36:01;17.40;82.50
15095;DHT22;7648;52.264;9.632;2023-04-19T12:40:03;17.20;73.50
15095;DHT22;7648;52.264;9.632;2023-04-19T12:44:05;16.80;79.90
15095;DHT22;7648;52.264;9.632;2023-04-19T12:48:08;16.90;84.20
15095;DHT22;7648;52.264;9.632;2023-04-19T12:52:10;17.30;91.30
15095;DHT22;7648;52.264;9.632;2023-04-19T12:56:12;17.40;82.60
15095;DHT22;7648;52.264;9.632;2023-04-19T13:00:15;17.00;73.70
15095;DHT22;7648;52.264;9.632;2023-04-19T13:04:19;17.20;80.90
15095;DHT22;7648;52.264;9.632;2023-04-19T13:08:21;17.40;78.40
15095;DHT22;7648;52.264;9.632;2023-04-19T13:12:23;17.20;80.60
15095;DHT22;7648;52.264;9.632;2023-04-19T13:16:25;16.90;84.20
15095;DHT22;7648;52.264;9.632;2023-04-19T13:20:28;16.70;85.10
15095;DHT22;7648;52.264;9.632;2023-04-19T13:24:30;16.70;87.70
15095;DHT22;7648;52.264;9.632;2023-04-19T13:28:32;16.80;81.80
15095;DHT22;7648;52.264;9.632;2023-04-19T13:32:35;16.50;86.20
15095;DHT22;7648;52.264;9.632;2023-04-19T13:36:38;16.10;84.90
15095;DHT22;7648;52.264;9.632;2023-04-19T13:40:40;15.70;91.70
15095;DHT22;7648;52.264;9.632;2023-04-19T13:44:42;15.40;89.50
15095;DHT22;7648;52.264;9.632;2023-04-19T13:48:44;15.20;93.50
15095;DHT22;7648;52.264;9.632;2023-04-19T13:52:47;15.00;92.20
15095;DHT22;7648;52.264;9.632;2023-04-19T13:56:49;15.00;95.50
15095;DHT22;7648;52.264;9.632;2023-04-19T14:00:51;15.00;99.80
15095;DHT22;7648;52.264;9.632;2023-04-19T14:04:53;15.00;90.30
15095;DHT22;7648;52.264;9.632;2023-04-19T14:08:59;15.20;96.00
15095;DHT22;7648;52.264;9.632;2023-04-19T14:13:01;15.90;89.30
15095;DHT22;7648;52.264;9.632;2023-04-19T14:17:03;16.00;79.30
15095;DHT22;7648;52.264;9.632;2023-04-19T14:21:05;16.20;83.90
15095;DHT22;7648;52.264;9.632;2023-04-19T14:25:09;16.10;87.30
15095;DHT22;7648;52.264;9.632;2023-04-19T14:29:12;16.20;85.70
15095;DHT22;7648;52.264;9.632;2023-04-19T14:33:13;16.30;83.90
15095;DHT22;7648;52.264;9.632;2023-04-19T14:37:15;16.50;84.10
15095;DHT22;7648;52.264;9.632;2023-04-19T14:41:19;16.90;83.30
15095;DHT22;7648;52.264;9.632;2023-04-19T14:45:21;17.20;82.90
15095;DHT22;7648;52.264;9.632;2023-04-19T14:49:22;17.50;82.10
15095;DHT22;7648;52.264;9.632;2023-04-19T14:53:24;17.00;82.20
15095;DHT22;7648;52.264;9.632;2023-04-19T14:57:28;17.30;85.30
15095;DHT22;7648;52.264;9.632;2023-04-19T15:01:29;17.80;83.30
15095;DHT22;7648;52.264;9.632;2023-04-19T15:05:33;18.20;84.60
15095;DHT22;7648;52.264;9.632;2023-04-19T15:09:36;17.60;88.70
15095;DHT22;7648;52.264;9.632;2023-04-19T15:13:39;17.10;94.30
15095;DHT22;7648;52.264;9.632;2023-04-19T15:17:41;16.40;91.20
15095;DHT22;7648;52.264;9.632;2023-04-19T15:21:43;15.90;98.60
15095;DHT22;7648;52.264;9.632;2023-04-19T15:25:45;15.40;91.20
15095;DHT22;7648;52.264;9.632;2023-04-19T15:29:50;15.60;99.90
15095;DHT22;7648;52.264;9.632;2023-04-19T15:33:52;15.70;94.70
15095;DHT22;7648;52.264;9.632;2023-04-19T15:37:54;15.50;94.20
15095;DHT22;7648;52.264;9.632;2023-04-19T15:41:56;15.30;99.90
15095;DHT22;7648;52.264;9.632;2023-04-19T15:45:59;15.60;96.40
15095;DHT22;7648;52.264;9.632;2023-04-19T15:50:01;15.80;95.90
15095;DHT22;7648;52.264;9.632;2023-04-19T15:54:04;15.40;84.60
15095;DHT22;7648;52.264;9.632;2023-04-19T15:58:06;14.80;89.90
15095;DHT22;7648;52.264;9.632;2023-04-19T16:02:09;14.60;93.80
15095;DHT22;7648;52.264;9.632;2023-04-19T16:06:11;15.00;92.00
15095;DHT22;7648;52.264;9.632;2023-04-19T16:10:13;15.90;95.90
15095;DHT22;7648;52.264;9.632;2023-04-19T16:14:15;16.90;90.40
15095;DHT22;7648;52.264;9.632;2023-04-19T16:18:18;16.70;87.70
15095;DHT22;7648;52.264;9.632;2023-04-19T16:22:20;15.70;83.50
15095;DHT22;7648;52.264;9.632;2023-04-19T16:26:22;15.20;97.00
15095;DHT22;7648;52.264;9.632;2023-04-19T16:30:24;15.40;91.40
15095;DHT22;7648;52.264;9.632;2023-04-19T16:34:28;16.00;85.30
15095;DHT22;7648;52.264;9.632;2023-04-19T16:38:30;16.40;94.60
15095;DHT22;7648;52.264;9.632;2023-04-19T16:42:31;16.30;92.90
15095;DHT22;7648;52.264;9.632;2023-04-19T16:46:33;16.00;90.30
15095;DHT22;7648;52.264;9.632;2023-04-19T16:50:37;15.70;98.00
15095;DHT22;7648;52.264;9.632;2023-04-19T16:54:38;15.30;91.00
15095;DHT22;7648;52.264;9.632;2023-04-19T16:58:40;15.10;92.70
15095;DHT22;7648;52.264;9.632;2023-04-19T17:02:42;14.80;84.50
15095;DHT22;7648;52.264;9.632;2023-04-19T17:06:45;14.50;88.10
15095;DHT22;7648;52.264;9.632;2023-04-19T17:10:47;14.40;96.00
15095;DHT22;7648;52.264;9.632;2023-04-19T17:14:49;14.00;97.40
15095;DHT22;7648;52.264;9.632;2023-04-19T17:18:52;13.80;86.20
15095;DHT22;7648;52.264;9.632;2023-04-19T17:22:55;13.60;94.00
15095;DHT22;7648;52.264;9.632;2023-04-19T17:27:00;13.50;99.90
15095;DHT22;7648;52.264;9.632;2023-04-19T17:31:02;13.40;99.90
15095;DHT22;7648;52.264;9.632;2023-04-19T17:35:05;13.20;92.90
15095;DHT22;7648;52.264;9.632;2023-04-19T17:39:08;13.00;91.90
15095;DHT22;7648;52.264;9.632;2023-04-19T17:43:10;12.80;99.90
15095;DHT22;7648;52.264;9.632;2023-04-19T17:47:13;12.70;94.10
15095;DHT22;7648;52.264;9.632;2023-04-19T17:51:15;12.50;91.40
15095;DHT22;7648;52.264;9.632;2023-04-19T17:55:18;12.40;86.00
15095;DHT22;7648;52.264;9.632;2023-04-19T17:59:20;12.30;93.20
15095;DHT22;7648;52.264;9.632;2023-04-19T18:03:21;12.20;93.20
15095;DHT22;7648;52.264;9.632;2023-04-19T18:07:23;12.10;97.10
15095;DHT22;7648;52.264;9.632;2023-04-19T18:11:26;12.00;97.40
15095;DHT22;7648;52.264;9.632;2023-04-19T18:15:28;11.80;95.40
15095;DHT22;7648;52.264;9.632;2023-04-19T18:19:30;11.70;99.90
15095;DHT22;7648;52.264;9.632;2023-04-19T18:23:32;11.60;99.90
15095;DHT22;7648;52.264;9.632;2023-04-19T18:27:35;11.40;99.90
15095;DHT22;7648;52.264;9.632;2023-04-19T18:31:37;11.30;99.90
15095;DHT22;7648;52.264;9.632;2023-04-19T18:35:39;11.10;99.90
15095;DHT22;7648;52.264;9.632;2023-04-19T18:39:41;11.00;99.50
15095;DHT22;7648;52.264;9.632;2023-04-19T18:43:44;10.90;99.90
15095;DHT22;7648;52.264;9.632;2023-04-19T18:47:46;10.80;99.90
15095;DHT22;7648;52.264;9.632;2023-04-19T18:51:48;10.80;95.50
15095;DHT22;7648;52.264;9.632;2023-04-19T18:55:54;10.70;96.90
15095;DHT22;7648;52.264;9.632;2023-04-19T18:59:58;10.70;93.60
15095;DHT22;7648;52.264;9.632;2023-04-19T19:04:00;10.70;95.30
15095;DHT22;7648;52.264;9.632;2023-04-19T19:08:02;10.70;94.40
15095;DHT22;7648;52.264;9.632;2023-04-19T19:12:04;10.60;93.60
15095;DHT22;7648;52.264;9.632;2023-04-19T19:16:07;10.60;92.50
15095;DHT22;7648;52.264;9.632;2023-04-19T19:20:10;10.60;97.30
15095;DHT22;7648;52.264;9.632;2023-04-19T19:24:12;10.50;95.60
15095;DHT22;7648;52.264;9.632;2023-04-19T19:28:14;10.40;98.10
15095;DHT22;7648;52.264;9.632;2023-04-19T19:32:18;10.30;95.70
15095;DHT22;7648;52.264;9.632;2023-04-19T19:36:20;10.30;97.40
15095;DHT22;7648;52.264;9.632;2023-04-19T19:40:22;10.20;95.40
15095;DHT22;7648;52.264;9.632;2023-04-19T19:44:24;10.10;98.50
15095;DHT22;7648;52.264;9.632;2023-04-19T19:48:28;10.00;99.90
15095;DHT22;7648;52.264;9.632;2023-04-19T19:52:30;10.00;99.90
15095;DHT22;7648;52.264;9.632;2023-04-19T19:56:32;9.90;99.90
15095;DHT22;7648;52.264;9.632;2023-04-19T20:00:34;9.90;99.90
15095;DHT22;7648;52.264;9.632;2023-04-19T20:04:37;9.90;99.90
15095;DHT22;7648;52.264;9.632;2023-04-19T20:08:39;9.80;99.90
15095;DHT22;7648;52.264;9.632;2023-04-19T20:12:42;9.70;99.90
15095;DHT22;7648;52.264;9.632;2023-04-19T20:16:44;9.70;99.90
15095;DHT22;7648;52.264;9.632;2023-04-19T20:20:48;9.50;99.90
15095;DHT22;7648;52.264;9.632;2023-04-19T20:24:51;9.40;99.90
15095;DHT22;7648;52.264;9.632;2023-04-19T20:28:53;9.30;99.90
15095;DHT22;7648;52.264;9.632;2023-04-19T20:32:55;9.20;99.90
15095;DHT22;7648;52.264;9.632;2023-04-19T20:36:58;9.20;99.90
15095;DHT22;7648;52.264;9.632;2023-04-19T20:41:01;9.20;99.90
15095;DHT22;7648;52.264;9.632;2023-04-19T20:45:04;9.20;99.90
15095;DHT22;7648;52.264;9.632;2023-04-19T20:49:06;9.10;99.90
15095;DHT22;7648;52.264;9.632;2023-04-19T20:53:09;8.90;99.90
15095;DHT22;7648;52.264;9.632;2023-04-19T20:57:11;8.80;99.90
15095;DHT22;7648;52.264;9.632;2023-04-19T21:01:14;8.70;99.90
15095;DHT22;7648;52.264;9.632;2023-04-19T21:05:16;8.60;99.90
15095;DHT22;7648;52.264;9.632;2023-04-19T21:09:20;8.60;99.90
15095;DHT22;7648;52.264;9.632;2023-04-19T21:13:21;8.50;99.90
15095;DHT22;7648;52.264;9.632;2023-04-19T21:17:23;8.50;99.90
15095;DHT22;7648;52.264;9.632;2023-04-19T21:21:25;8.40;99.90
15095;DHT22;7648;52.264;9.632;2023-04-19T21:25:29;8.40;99.90
15095;DHT22;7648;52.264;9.632;2023-04-19T21:29:31;8.40;99.90
15095;DHT22;7648;52.264;9.632;2023-04-19T21:33:32;8.40;99.90
15095;DHT22;7648;52.264;9.632;2023-04-19T21:37:35;8.40;99.90
15095;DHT22;7648;52.264;9.632;2023-04-19T21:41:38;8.40;99.90
15095;DHT22;7648;52.264;9.632;2023-04-19T21:45:40;8.40;99.90
15095;DHT22;7648;52.264;9.632;2023-04-19T21:49:42;8.40;99.90
15095;DHT22;7648;52.264;9.632;2023-04-19T21:53:44;8.40;99.90
15095;DHT22;7648;52.264;9.632;2023-04-19T21:57:47;8.40;99.90
15095;DHT22;7648;52.264;9.632;2023-04-19T22:01:49;8.40;99.90
15095;DHT22;7648;52.264;9.632;2023-04-19T22:05:51;8.40;99.90
15095;DHT22;7648;52.264;9.632;2023-04-19T22:09:53;8.50;99.90
15095;DHT22;7648;52.264;9.632;2023-04-19T22:13:57;8.50;99.90
15095;DHT22;7648;52.264;9.632;2023-04-19T22:17:59;8.50;99.90
15095;DHT22;7648;52.264;9.632;2023-04-19T22:22:02;8.50;99.90
15095;DHT22;7648;52.264;9.632;2023-04-19T22:26:04;8.50;99.90
15095;DHT22;7648;52.264;9.632;2023-04-19T22:30:08;8.50;99.90
15095;DHT22;7648;52.264;9.632;2023-04-19T22:34:10;8.60;99.90
15095;DHT22;7648;52.264;9.632;2023-04-19T22:38:12;8.50;99.90
15095;DHT22;7648;52.264;9.632;2023-04-19T22:42:14;8.50;99.90
15095;DHT22;7648;52.264;9.632;2023-04-19T22:46:17;8.50;99.90
15095;DHT22;7648;52.264;9.632;2023-04-19T22:50:19;8.40;99.90
15095;DHT22;7648;52.264;9.632;2023-04-19T22:54:22;8.40;99.90
15095;DHT22;7648;52.264;9.632;2023-04-19T22:58:24;8.40;99.90
15095;DHT22;7648;52.264;9.632;2023-04-19T23:02:28;8.40;99.90
15095;DHT22;7648;52.264;9.632;2023-04-19T23:06:30;8.30;99.90
15095;DHT22;7648;52.264;9.632;2023-04-19T23:10:32;8.20;99.90
15095;DHT22;7648;52.264;9.632;2023-04-19T23:14:37;8.10;99.90
15095;DHT22;7648;52.264;9.632;2023-04-19T23:18:40;8.00;99.90
15095;DHT22;7648;52.264;9.632;2023-04-19T23:22:42;7.90;99.90
15095;DHT22;7648;52.264;9.632;2023-04-19T23:26:44;7.70;99.90
15095;DHT22;7648;52.264;9.632;2023-04-19T23:30:46;7.70;99.90
15095;DHT22;7648;52.264;9.632;2023-04-19T23:34:49;7.60;99.90
15095;DHT22;7648;52.264;9.632;2023-04-19T23:38:51;7.50;99.90
15095;DHT22;7648;52.264;9.632;2023-04-19T23:42:53;7.50;99.90
15095;DHT22;7648;52.264;9.632;2023-04-19T23:46:55;7.40;99.90
15095;DHT22;7648;52.264;9.632;2023-04-19T23:50:58;7.40;99.90
15095;DHT22;7648;52.264;9.632;2023-04-19T23:55:00;7.40;99.90
15095;DHT22;7648;52.264;9.632;2023-04-19T23:59:02;7.30;99.90
